aviador You're here:

KVTI Decoded Metar

VINTON in IA, USA
Report Time2017-05-26 12:55:00
UTC Time2017-05-26 13:10:07
Flight Rules vfr VFR
Wind110° at 08 kt
W.Decomp.*RWY 09: 7.6 kt HW 2.6 kt RCW
RWY 16: 5.0 kt HW 6.2 kt LCW
W.Rank110° ranks 19
Current wind is above 110° avg. (7.3)
Visibility9999 m
Phenomena:N/A
Clouds:Scattered 055 Hf
Expected CloudBase > 2,400 ft AGL from Temp-Dew spread
CeilingNone
Temp17°C (ISA +4)
Dew Point11°C (68% RH)
AAT14.5°C
QNH1007 hPa
Density Alt1,650 ft
Elevation837 ft
Report Wrong Elevation
Raw Report
METAR KVTI 261255Z AUTO 11008KT 10SM SCT055 17/11 A2973 RMK AO2=

Extra information for KVTI:More info

Metar Taf Metar & Taf Last 4 Metars F.Rules Stats Wind Profile Meteogram Temp Stats Airport Information Weather charts Add Link Nearby VenuesMetar ALERT Operation Metar Decoded Social comments

AIRNAV info for KVTI